deformed-offering

Nearby METAR Reports

 

KSJC - San Jose, California, USA
Distance from station: NE 9mi, 14km
Updated: Fri, 17-Sep-2021 7:53am PDT
Overcast
Overcast
 Wind from S
Wind: S 10 mph , 17 km/h
Temperature: 57°F , 14°C
Dew Point: 50°F , 10°C
Humidity: 77%
Barometer: 29.95 inHg , 1014.2 hPa
Clouds: Overcast
Visibility: 10 miles , 16 km
Cloud details: Overcast 1300 ft
2021/09/17 14:53 KSJC 171453Z 17009KT 10SM OVC013 14/10 A2995 RMK AO2 SLP141 T01440100 51020 $
KRHV - San Jose/Reid, California, USA
Distance from station: ENE 12mi, 19km
Updated: Fri, 17-Sep-2021 7:47am PDT
Overcast
Overcast
 Wind from SSE
Wind: SSE 7 mph , 11 km/h
Temperature: 55°F , 13°C
Dew Point: 50°F , 10°C
Humidity: 82%
Barometer: 29.96 inHg , 1014.6 hPa
Clouds: Overcast
Visibility: 8 miles , 13 km
Cloud details: Overcast 1400 ft
2021/09/17 14:47 KRHV 171447Z 15006KT 8SM OVC014 13/10 A2996
 
KPAO - Palo Alto, California, USA
Distance from station: NNW 14mi, 23km
Updated: Fri, 17-Sep-2021 6:47am PDT
NOT Current
Mostly Cloudy
Mostly Cloudy
 Wind from varies
Wind: varies 5 mph , 7 km/h
Temperature: 57°F , 14°C
Dew Point: 52°F , 11°C
Humidity: 82%
Barometer: 29.93 inHg , 1013.5 hPa
Clouds: Mostly Cloudy
Visibility: 10 miles , 16 km
Cloud details: Mostly Cloudy 1500 ft
2021/09/17 13:47 KPAO 171347Z VRB04KT 10SM BKN015 14/11 A2993
KSQL - San Carlos Airpo, California, USA
Distance from station: NW 21mi, 34km
Updated: Fri, 17-Sep-2021 7:47am PDT
Overcast
Overcast
 Wind from calm
Wind: Calm
Temperature: 59°F , 15°C
Dew Point: 52°F , 11°C
Humidity: 77%
Barometer: 29.95 inHg , 1014.2 hPa
Clouds: Overcast
Visibility: 10 miles , 16 km
Cloud details: Overcast 1700 ft
2021/09/17 14:47 KSQL 171447Z 00000KT 10SM OVC017 15/11 A2995
 
KWVI - Watsonville, California, USA
Distance from station: SSE 27mi, 44km
Updated: Fri, 17-Sep-2021 7:53am PDT
Overcast
Overcast
 Wind from calm
Wind: Calm
Temperature: 55°F , 13°C
Dew Point: 52°F , 11°C
Humidity: 88%
Barometer: 29.97 inHg , 1014.9 hPa
Clouds: Overcast
Visibility: 10 miles , 16 km
Cloud details: Overcast 1000 ft
2021/09/17 14:53 KWVI 171453Z AUTO 00000KT 10SM OVC010 13/11 A2997 RMK AO2 SLP149 T01280111 51020
KHWD - Hayward, California, USA
Distance from station: N 28mi, 44km
Updated: Fri, 17-Sep-2021 7:54am PDT
Overcast
Overcast
 Wind from SSE
Wind: SSE 5 mph , 7 km/h
Temperature: 59°F , 15°C
Dew Point: 54°F , 12°C
Humidity: 82%
Barometer: 29.94 inHg , 1013.9 hPa
Clouds: Overcast
Visibility: 10 miles , 16 km
Cloud details: Overcast 1400 ft
2021/09/17 14:54 KHWD 171454Z 16004KT 10SM OVC014 15/12 A2994 RMK AO2 SLP147 T01500117 51017
 
KSFO - San Francisco, California, USA
Distance from station: NW 30mi, 49km
Updated: Fri, 17-Sep-2021 7:56am PDT
Mostly Cloudy
Mostly Cloudy
 Wind from SSW
Wind: SSW 13 mph , 20 km/h
Temperature: 57°F , 14°C
Dew Point: 52°F , 11°C
Humidity: 82%
Barometer: 29.94 inHg , 1013.9 hPa
Clouds: Mostly Cloudy
Visibility: 10 miles , 16 km
Cloud details: Few Clouds 600 ft
Mostly Cloudy 1500 ft
2021/09/17 14:56 KSFO 171456Z 20011KT 10SM FEW006 BKN015 14/11 A2994 RMK AO2 SLP138 T01390106 51011
KHAF - Half Moon Bay, California, USA
Distance from station: WNW 31mi, 50km
Updated: Fri, 17-Sep-2021 8:15am PDT
Haze, Overcast
Haze, Overcast
 Wind from S
Wind: S 8 mph , 13 km/h
Temperature: 55°F , 13°C
Dew Point: 52°F , 11°C
Humidity: 88%
Barometer: 29.96 inHg , 1014.6 hPa
Summary: Haze
Clouds: Overcast
Visibility: 5 miles , 8 km
Cloud details: Overcast 1200 ft
2021/09/17 15:15 KHAF 171515Z AUTO 18007KT 150V210 5SM HZ OVC012 13/11 A2996 RMK AO2 PWINO
 
KLVK - Livermore, California, USA
Distance from station: NNE 31mi, 51km
Updated: Fri, 17-Sep-2021 7:53am PDT
Overcast
Overcast
 Wind from S
Wind: S 6 mph , 9 km/h
Temperature: 57°F , 14°C
Dew Point: 52°F , 11°C
Humidity: 82%
Barometer: 29.94 inHg , 1013.9 hPa
Clouds: Overcast
Visibility: 10 miles , 16 km
Cloud details: Overcast 1000 ft
2021/09/17 14:53 KLVK 171453Z 18005KT 10SM OVC010 14/11 A2994 RMK AO2 SLP134 T01390111 51019
KOAK - Oakland, California, USA
Distance from station: NNW 33mi, 53km
Updated: Fri, 17-Sep-2021 7:53am PDT
Overcast
Overcast
 Wind from S
Wind: S 3 mph , 6 km/h
Temperature: 61°F , 16°C
Dew Point: 54°F , 12°C
Humidity: 77%
Barometer: 29.94 inHg , 1013.9 hPa
Clouds: Overcast
Visibility: 10 miles , 16 km
Cloud details: Overcast 1100 ft
2021/09/17 14:53 KOAK 171453Z 18003KT 10SM OVC011 16/12 A2994 RMK AO2 SLP140 T01560117 51017
 
KCVH - Hollister Muni, California, USA
Distance from station: SE 42mi, 68km
Updated: Fri, 17-Sep-2021 8:15am PDT
Overcast
Overcast
 Wind from calm
Wind: Calm
Temperature: 55°F , 13°C
Dew Point: 52°F , 11°C
Humidity: 88%
Barometer: 29.98 inHg , 1015.2 hPa
Clouds: Overcast
Visibility: 9 miles , 14 km
Cloud details: Overcast 1000 ft
2021/09/17 15:15 KCVH 171515Z AUTO 00000KT 9SM OVC010 13/11 A2998 RMK A01
KSNS - Salinas, California, USA
Distance from station: SSE 48mi, 77km
Updated: Fri, 17-Sep-2021 7:53am PDT
Overcast
Overcast
 Wind from SE
Wind: SE 6 mph , 9 km/h
Temperature: 57°F , 14°C
Dew Point: 52°F , 11°C
Humidity: 82%
Barometer: 29.96 inHg , 1014.6 hPa
Clouds: Overcast
Visibility: 10 miles , 16 km
Cloud details: Overcast 1100 ft
2021/09/17 14:53 KSNS 171453Z 13005KT 10SM OVC011 14/11 A2996 RMK AO2 SLP155 T01440111 51017
 
KMRY - Monterey, California, USA
Distance from station: SSE 49mi, 78km
Updated: Fri, 17-Sep-2021 7:54am PDT
Overcast
Overcast
 Wind from ESE
Wind: ESE 6 mph , 9 km/h
Temperature: 57°F , 14°C
Dew Point: 52°F , 11°C
Humidity: 82%
Barometer: 29.97 inHg , 1014.9 hPa
Clouds: Overcast
Visibility: 10 miles , 16 km
Cloud details: Overcast 1100 ft
2021/09/17 14:54 KMRY 171454Z 11005KT 10SM OVC011 14/11 A2997 RMK AO2 SLP160 T01390106 51018
KCCR - Concord, California, USA
Distance from station: N 50mi, 81km
Updated: Fri, 17-Sep-2021 7:53am PDT
Overcast
Overcast
 Wind from SW
Wind: SW 7 mph , 11 km/h
Temperature: 57°F , 14°C
Dew Point: 52°F , 11°C
Humidity: 82%
Barometer: 29.93 inHg , 1013.5 hPa
Clouds: Overcast
Visibility: 10 miles , 16 km
Cloud details: Overcast 1200 ft
2021/09/17 14:53 KCCR 171453Z 22006KT 10SM OVC012 14/11 A2993 RMK AO2 SLP122 T01440106 51017
deformed-offering